sensor_id;sensor_type;location;lat;lon;timestamp;temperature;humidity
19920;DHT22;10122;50.074;19.920;2022-11-15T00:02:09;6.20;99.90
19920;DHT22;10122;50.074;19.920;2022-11-15T00:04:35;6.20;99.90
19920;DHT22;10122;50.074;19.920;2022-11-15T00:07:00;6.20;99.90
19920;DHT22;10122;50.074;19.920;2022-11-15T00:09:26;6.20;99.90
19920;DHT22;10122;50.074;19.920;2022-11-15T00:11:52;6.20;99.90
19920;DHT22;10122;50.074;19.920;2022-11-15T00:14:17;6.20;99.90
19920;DHT22;10122;50.074;19.920;2022-11-15T00:16:43;6.10;99.90
19920;DHT22;10122;50.074;19.920;2022-11-15T00:19:09;6.10;99.90
19920;DHT22;10122;50.074;19.920;2022-11-15T00:21:35;6.10;99.90
19920;DHT22;10122;50.074;19.920;2022-11-15T00:24:00;6.10;99.90
19920;DHT22;10122;50.074;19.920;2022-11-15T00:26:26;6.10;99.90
19920;DHT22;10122;50.074;19.920;2022-11-15T00:28:52;6.10;99.90
19920;DHT22;10122;50.074;19.920;2022-11-15T00:31:19;6.10;99.90
19920;DHT22;10122;50.074;19.920;2022-11-15T00:33:44;6.00;99.90
19920;DHT22;10122;50.074;19.920;2022-11-15T00:36:10;6.00;99.90
19920;DHT22;10122;50.074;19.920;2022-11-15T00:38:38;6.10;99.90
19920;DHT22;10122;50.074;19.920;2022-11-15T00:41:05;6.10;99.90
19920;DHT22;10122;50.074;19.920;2022-11-15T00:43:32;6.10;99.90
19920;DHT22;10122;50.074;19.920;2022-11-15T00:45:57;6.10;99.90
19920;DHT22;10122;50.074;19.920;2022-11-15T00:48:23;6.20;99.90
19920;DHT22;10122;50.074;19.920;2022-11-15T00:50:49;6.20;99.90
19920;DHT22;10122;50.074;19.920;2022-11-15T00:53:15;6.30;99.90
19920;DHT22;10122;50.074;19.920;2022-11-15T00:55:41;6.30;99.90
19920;DHT22;10122;50.074;19.920;2022-11-15T00:58:07;6.30;99.90
19920;DHT22;10122;50.074;19.920;2022-11-15T01:00:33;6.30;99.90
19920;DHT22;10122;50.074;19.920;2022-11-15T01:03:00;6.30;99.90
19920;DHT22;10122;50.074;19.920;2022-11-15T01:05:27;6.30;99.90
19920;DHT22;10122;50.074;19.920;2022-11-15T01:07:54;6.30;99.90
19920;DHT22;10122;50.074;19.920;2022-11-15T01:10:21;6.30;99.90
19920;DHT22;10122;50.074;19.920;2022-11-15T01:12:47;6.30;99.90
19920;DHT22;10122;50.074;19.920;2022-11-15T01:15:12;6.30;99.90
19920;DHT22;10122;50.074;19.920;2022-11-15T01:17:38;6.30;99.90
19920;DHT22;10122;50.074;19.920;2022-11-15T01:20:04;6.20;99.90
19920;DHT22;10122;50.074;19.920;2022-11-15T01:22:30;6.20;99.90
19920;DHT22;10122;50.074;19.920;2022-11-15T01:24:56;6.10;99.90
19920;DHT22;10122;50.074;19.920;2022-11-15T01:27:21;6.10;99.90
19920;DHT22;10122;50.074;19.920;2022-11-15T01:29:47;6.10;99.90
19920;DHT22;10122;50.074;19.920;2022-11-15T01:32:13;6.10;99.90
19920;DHT22;10122;50.074;19.920;2022-11-15T01:34:38;6.10;99.90
19920;DHT22;10122;50.074;19.920;2022-11-15T01:37:04;6.00;99.90
19920;DHT22;10122;50.074;19.920;2022-11-15T01:39:30;6.10;99.90
19920;DHT22;10122;50.074;19.920;2022-11-15T01:41:55;6.20;99.90
19920;DHT22;10122;50.074;19.920;2022-11-15T01:44:41;6.10;99.90
19920;DHT22;10122;50.074;19.920;2022-11-15T01:47:19;6.10;99.90
19920;DHT22;10122;50.074;19.920;2022-11-15T01:49:54;6.10;99.90
19920;DHT22;10122;50.074;19.920;2022-11-15T01:52:21;6.10;99.90
19920;DHT22;10122;50.074;19.920;2022-11-15T01:54:53;6.10;99.90
19920;DHT22;10122;50.074;19.920;2022-11-15T01:57:20;6.10;99.90
19920;DHT22;10122;50.074;19.920;2022-11-15T01:59:47;6.20;99.90
19920;DHT22;10122;50.074;19.920;2022-11-15T02:02:12;6.20;99.90
19920;DHT22;10122;50.074;19.920;2022-11-15T02:04:43;6.20;99.90
19920;DHT22;10122;50.074;19.920;2022-11-15T02:07:12;6.20;99.90
19920;DHT22;10122;50.074;19.920;2022-11-15T02:09:39;6.30;99.90
19920;DHT22;10122;50.074;19.920;2022-11-15T02:12:06;6.40;99.90
19920;DHT22;10122;50.074;19.920;2022-11-15T02:14:34;6.40;99.90
19920;DHT22;10122;50.074;19.920;2022-11-15T02:20:08;6.40;99.90
19920;DHT22;10122;50.074;19.920;2022-11-15T02:28:33;6.30;99.90
19920;DHT22;10122;50.074;19.920;2022-11-15T02:42:06;6.60;99.90
19920;DHT22;10122;50.074;19.920;2022-11-15T02:44:53;6.50;99.90
19920;DHT22;10122;50.074;19.920;2022-11-15T02:47:22;6.60;99.90
19920;DHT22;10122;50.074;19.920;2022-11-15T02:49:51;6.60;99.90
19920;DHT22;10122;50.074;19.920;2022-11-15T02:52:20;6.60;99.90
19920;DHT22;10122;50.074;19.920;2022-11-15T02:54:57;6.60;99.90
19920;DHT22;10122;50.074;19.920;2022-11-15T02:57:53;6.60;99.90
19920;DHT22;10122;50.074;19.920;2022-11-15T03:00:21;6.60;99.90
19920;DHT22;10122;50.074;19.920;2022-11-15T03:05:46;6.60;99.90
19920;DHT22;10122;50.074;19.920;2022-11-15T03:11:08;6.50;99.90
19920;DHT22;10122;50.074;19.920;2022-11-15T03:16:30;6.30;99.90
19920;DHT22;10122;50.074;19.920;2022-11-15T03:21:51;6.20;99.90
19920;DHT22;10122;50.074;19.920;2022-11-15T03:24:19;6.20;99.90
19920;DHT22;10122;50.074;19.920;2022-11-15T03:26:48;6.10;99.90
19920;DHT22;10122;50.074;19.920;2022-11-15T03:29:19;6.10;99.90
19920;DHT22;10122;50.074;19.920;2022-11-15T03:31:48;6.20;99.90
19920;DHT22;10122;50.074;19.920;2022-11-15T03:36:52;6.20;99.90
19920;DHT22;10122;50.074;19.920;2022-11-15T03:39:19;6.10;99.90
19920;DHT22;10122;50.074;19.920;2022-11-15T03:47:34;6.00;99.90
19920;DHT22;10122;50.074;19.920;2022-11-15T03:50:04;6.00;99.90
19920;DHT22;10122;50.074;19.920;2022-11-15T03:52:33;5.90;99.90
19920;DHT22;10122;50.074;19.920;2022-11-15T03:55:01;5.90;99.90
19920;DHT22;10122;50.074;19.920;2022-11-15T03:57:27;5.90;99.90
19920;DHT22;10122;50.074;19.920;2022-11-15T03:59:53;5.90;99.90
19920;DHT22;10122;50.074;19.920;2022-11-15T04:02:19;5.90;99.90
19920;DHT22;10122;50.074;19.920;2022-11-15T04:04:45;5.90;99.90
19920;DHT22;10122;50.074;19.920;2022-11-15T04:07:10;5.80;99.90
19920;DHT22;10122;50.074;19.920;2022-11-15T04:09:36;5.90;99.90
19920;DHT22;10122;50.074;19.920;2022-11-15T04:12:22;5.90;99.90
19920;DHT22;10122;50.074;19.920;2022-11-15T04:14:57;5.90;99.90
19920;DHT22;10122;50.074;19.920;2022-11-15T04:22:59;5.80;99.90
19920;DHT22;10122;50.074;19.920;2022-11-15T04:25:45;5.80;99.90
19920;DHT22;10122;50.074;19.920;2022-11-15T04:28:11;5.90;99.90
19920;DHT22;10122;50.074;19.920;2022-11-15T04:30:37;5.90;99.90
19920;DHT22;10122;50.074;19.920;2022-11-15T04:33:03;5.90;99.90
19920;DHT22;10122;50.074;19.920;2022-11-15T04:35:29;5.90;99.90
19920;DHT22;10122;50.074;19.920;2022-11-15T04:37:56;5.90;99.90
19920;DHT22;10122;50.074;19.920;2022-11-15T04:40:22;6.00;99.90
19920;DHT22;10122;50.074;19.920;2022-11-15T04:42:48;6.00;99.90
19920;DHT22;10122;50.074;19.920;2022-11-15T04:45:13;6.10;99.90
19920;DHT22;10122;50.074;19.920;2022-11-15T04:47:39;6.00;99.90
19920;DHT22;10122;50.074;19.920;2022-11-15T04:50:05;5.80;99.90
19920;DHT22;10122;50.074;19.920;2022-11-15T04:52:31;5.60;99.90
19920;DHT22;10122;50.074;19.920;2022-11-15T04:54:57;5.50;99.90
19920;DHT22;10122;50.074;19.920;2022-11-15T04:57:22;5.40;99.90
19920;DHT22;10122;50.074;19.920;2022-11-15T04:59:48;5.40;99.90
19920;DHT22;10122;50.074;19.920;2022-11-15T05:02:13;5.40;99.90
19920;DHT22;10122;50.074;19.920;2022-11-15T05:04:39;5.30;99.90
19920;DHT22;10122;50.074;19.920;2022-11-15T05:07:05;5.30;99.90
19920;DHT22;10122;50.074;19.920;2022-11-15T05:09:30;5.30;99.90
19920;DHT22;10122;50.074;19.920;2022-11-15T05:11:56;5.20;99.90
19920;DHT22;10122;50.074;19.920;2022-11-15T05:14:22;5.30;99.90
19920;DHT22;10122;50.074;19.920;2022-11-15T05:16:47;5.50;99.90
19920;DHT22;10122;50.074;19.920;2022-11-15T05:19:13;5.50;99.90
19920;DHT22;10122;50.074;19.920;2022-11-15T05:21:39;5.60;99.90
19920;DHT22;10122;50.074;19.920;2022-11-15T05:24:05;5.60;99.90
19920;DHT22;10122;50.074;19.920;2022-11-15T05:26:30;5.50;99.90
19920;DHT22;10122;50.074;19.920;2022-11-15T05:28:58;5.50;99.90
19920;DHT22;10122;50.074;19.920;2022-11-15T05:31:25;5.50;99.90
19920;DHT22;10122;50.074;19.920;2022-11-15T05:33:51;5.50;99.90
19920;DHT22;10122;50.074;19.920;2022-11-15T05:36:38;5.50;99.90
19920;DHT22;10122;50.074;19.920;2022-11-15T05:39:07;5.50;99.90
19920;DHT22;10122;50.074;19.920;2022-11-15T05:41:44;5.50;99.90
19920;DHT22;10122;50.074;19.920;2022-11-15T05:44:13;5.60;99.90
19920;DHT22;10122;50.074;19.920;2022-11-15T05:46:40;5.70;99.90
19920;DHT22;10122;50.074;19.920;2022-11-15T05:49:11;5.80;99.90
19920;DHT22;10122;50.074;19.920;2022-11-15T05:51:38;5.70;99.90
19920;DHT22;10122;50.074;19.920;2022-11-15T05:54:04;5.70;99.90
19920;DHT22;10122;50.074;19.920;2022-11-15T05:56:30;5.60;99.90
19920;DHT22;10122;50.074;19.920;2022-11-15T05:58:57;5.50;99.90
19920;DHT22;10122;50.074;19.920;2022-11-15T06:01:24;5.50;99.90
19920;DHT22;10122;50.074;19.920;2022-11-15T06:03:50;5.40;99.90
19920;DHT22;10122;50.074;19.920;2022-11-15T06:06:16;5.40;99.90
19920;DHT22;10122;50.074;19.920;2022-11-15T06:08:41;5.40;99.90
19920;DHT22;10122;50.074;19.920;2022-11-15T06:11:07;5.40;99.90
19920;DHT22;10122;50.074;19.920;2022-11-15T06:13:33;5.30;99.90
19920;DHT22;10122;50.074;19.920;2022-11-15T06:15:59;5.30;99.90
19920;DHT22;10122;50.074;19.920;2022-11-15T06:18:26;5.30;99.90
19920;DHT22;10122;50.074;19.920;2022-11-15T06:20:52;5.20;99.90
19920;DHT22;10122;50.074;19.920;2022-11-15T06:23:17;5.20;99.90
19920;DHT22;10122;50.074;19.920;2022-11-15T06:25:43;5.20;99.90
19920;DHT22;10122;50.074;19.920;2022-11-15T06:28:09;5.20;99.90
19920;DHT22;10122;50.074;19.920;2022-11-15T06:30:34;5.20;99.90
19920;DHT22;10122;50.074;19.920;2022-11-15T06:33:04;5.20;99.90
19920;DHT22;10122;50.074;19.920;2022-11-15T06:35:32;5.20;99.90
19920;DHT22;10122;50.074;19.920;2022-11-15T06:38:03;5.10;99.90
19920;DHT22;10122;50.074;19.920;2022-11-15T06:40:29;5.20;99.90
19920;DHT22;10122;50.074;19.920;2022-11-15T06:42:58;5.20;99.90
19920;DHT22;10122;50.074;19.920;2022-11-15T06:45:25;5.40;99.90
19920;DHT22;10122;50.074;19.920;2022-11-15T06:47:51;5.30;99.90
19920;DHT22;10122;50.074;19.920;2022-11-15T06:50:16;5.30;99.90
19920;DHT22;10122;50.074;19.920;2022-11-15T06:52:42;5.30;99.90
19920;DHT22;10122;50.074;19.920;2022-11-15T06:55:08;5.30;99.90
19920;DHT22;10122;50.074;19.920;2022-11-15T06:57:34;5.40;99.90
19920;DHT22;10122;50.074;19.920;2022-11-15T07:00:00;5.40;99.90
19920;DHT22;10122;50.074;19.920;2022-11-15T07:02:26;5.40;99.90
19920;DHT22;10122;50.074;19.920;2022-11-15T07:04:51;5.40;99.90
19920;DHT22;10122;50.074;19.920;2022-11-15T07:07:17;5.50;99.90
19920;DHT22;10122;50.074;19.920;2022-11-15T07:09:42;5.50;99.90
19920;DHT22;10122;50.074;19.920;2022-11-15T07:12:08;5.40;99.90
19920;DHT22;10122;50.074;19.920;2022-11-15T07:14:34;5.40;99.90
19920;DHT22;10122;50.074;19.920;2022-11-15T07:16:59;5.50;99.90
19920;DHT22;10122;50.074;19.920;2022-11-15T07:19:28;5.50;99.90
19920;DHT22;10122;50.074;19.920;2022-11-15T07:21:53;5.50;99.90
19920;DHT22;10122;50.074;19.920;2022-11-15T07:24:19;5.40;99.90
19920;DHT22;10122;50.074;19.920;2022-11-15T07:26:45;5.30;99.90
19920;DHT22;10122;50.074;19.920;2022-11-15T07:29:10;5.40;99.90
19920;DHT22;10122;50.074;19.920;2022-11-15T07:31:36;5.50;99.90
19920;DHT22;10122;50.074;19.920;2022-11-15T07:34:02;5.60;99.90
19920;DHT22;10122;50.074;19.920;2022-11-15T07:36:27;5.50;99.90
19920;DHT22;10122;50.074;19.920;2022-11-15T07:38:53;5.50;99.90
19920;DHT22;10122;50.074;19.920;2022-11-15T07:41:19;5.50;99.90
19920;DHT22;10122;50.074;19.920;2022-11-15T07:43:44;5.50;99.90
19920;DHT22;10122;50.074;19.920;2022-11-15T07:46:10;5.60;99.90
19920;DHT22;10122;50.074;19.920;2022-11-15T07:48:36;5.60;99.90
19920;DHT22;10122;50.074;19.920;2022-11-15T07:51:02;5.70;99.90
19920;DHT22;10122;50.074;19.920;2022-11-15T07:53:28;5.80;99.90
19920;DHT22;10122;50.074;19.920;2022-11-15T07:55:53;5.80;99.90
19920;DHT22;10122;50.074;19.920;2022-11-15T07:58:19;5.80;99.90
19920;DHT22;10122;50.074;19.920;2022-11-15T08:00:46;5.70;99.90
19920;DHT22;10122;50.074;19.920;2022-11-15T08:03:14;5.70;99.90
19920;DHT22;10122;50.074;19.920;2022-11-15T08:05:41;5.70;99.90
19920;DHT22;10122;50.074;19.920;2022-11-15T08:08:09;5.70;99.90
19920;DHT22;10122;50.074;19.920;2022-11-15T08:10:35;5.70;99.90
19920;DHT22;10122;50.074;19.920;2022-11-15T08:13:05;5.80;99.90
19920;DHT22;10122;50.074;19.920;2022-11-15T08:15:32;5.80;99.90
19920;DHT22;10122;50.074;19.920;2022-11-15T08:18:01;6.00;99.90
19920;DHT22;10122;50.074;19.920;2022-11-15T08:20:29;6.00;99.90
19920;DHT22;10122;50.074;19.920;2022-11-15T08:22:59;6.00;99.90
19920;DHT22;10122;50.074;19.920;2022-11-15T08:25:26;6.10;99.90
19920;DHT22;10122;50.074;19.920;2022-11-15T08:27:53;6.20;99.90
19920;DHT22;10122;50.074;19.920;2022-11-15T08:30:19;6.20;99.90
19920;DHT22;10122;50.074;19.920;2022-11-15T08:32:45;6.20;99.90
19920;DHT22;10122;50.074;19.920;2022-11-15T08:35:10;6.30;99.90
19920;DHT22;10122;50.074;19.920;2022-11-15T08:37:36;6.40;99.90
19920;DHT22;10122;50.074;19.920;2022-11-15T08:40:02;6.40;99.90
19920;DHT22;10122;50.074;19.920;2022-11-15T08:42:28;6.40;99.90
19920;DHT22;10122;50.074;19.920;2022-11-15T08:44:53;6.40;99.90
19920;DHT22;10122;50.074;19.920;2022-11-15T08:47:19;6.40;99.90
19920;DHT22;10122;50.074;19.920;2022-11-15T08:49:45;6.30;99.90
19920;DHT22;10122;50.074;19.920;2022-11-15T08:52:10;6.40;99.90
19920;DHT22;10122;50.074;19.920;2022-11-15T08:54:36;6.50;99.90
19920;DHT22;10122;50.074;19.920;2022-11-15T08:57:02;6.50;99.90
19920;DHT22;10122;50.074;19.920;2022-11-15T08:59:27;6.60;99.90
19920;DHT22;10122;50.074;19.920;2022-11-15T09:01:53;6.70;99.90
19920;DHT22;10122;50.074;19.920;2022-11-15T09:04:19;6.70;99.90
19920;DHT22;10122;50.074;19.920;2022-11-15T09:06:44;6.80;99.90
19920;DHT22;10122;50.074;19.920;2022-11-15T09:09:10;6.90;99.90
19920;DHT22;10122;50.074;19.920;2022-11-15T09:11:36;6.90;99.90
19920;DHT22;10122;50.074;19.920;2022-11-15T09:14:02;7.00;99.90
19920;DHT22;10122;50.074;19.920;2022-11-15T09:16:27;7.00;99.90
19920;DHT22;10122;50.074;19.920;2022-11-15T09:18:53;7.10;99.90
19920;DHT22;10122;50.074;19.920;2022-11-15T09:21:20;7.20;99.90
19920;DHT22;10122;50.074;19.920;2022-11-15T09:23:45;7.30;99.90
19920;DHT22;10122;50.074;19.920;2022-11-15T09:26:11;7.30;99.90
19920;DHT22;10122;50.074;19.920;2022-11-15T09:28:37;7.40;99.90
19920;DHT22;10122;50.074;19.920;2022-11-15T09:31:04;7.40;99.90
19920;DHT22;10122;50.074;19.920;2022-11-15T09:33:31;7.50;99.90
19920;DHT22;10122;50.074;19.920;2022-11-15T09:36:05;7.60;99.90
19920;DHT22;10122;50.074;19.920;2022-11-15T09:38:32;7.60;99.90
19920;DHT22;10122;50.074;19.920;2022-11-15T09:51:33;7.70;99.90
19920;DHT22;10122;50.074;19.920;2022-11-15T09:54:04;7.80;99.90
19920;DHT22;10122;50.074;19.920;2022-11-15T09:56:31;7.80;99.90
19920;DHT22;10122;50.074;19.920;2022-11-15T10:04:21;8.10;99.90
19920;DHT22;10122;50.074;19.920;2022-11-15T10:07:03;8.20;99.90
19920;DHT22;10122;50.074;19.920;2022-11-15T10:09:41;8.30;99.90
19920;DHT22;10122;50.074;19.920;2022-11-15T10:12:10;8.40;99.90
19920;DHT22;10122;50.074;19.920;2022-11-15T10:14:38;8.40;99.90
19920;DHT22;10122;50.074;19.920;2022-11-15T10:17:28;8.40;99.90
19920;DHT22;10122;50.074;19.920;2022-11-15T10:20:16;8.50;99.90
19920;DHT22;10122;50.074;19.920;2022-11-15T10:23:06;8.60;99.90
19920;DHT22;10122;50.074;19.920;2022-11-15T10:25:33;8.60;99.90
19920;DHT22;10122;50.074;19.920;2022-11-15T10:28:15;8.60;99.90
19920;DHT22;10122;50.074;19.920;2022-11-15T10:30:52;8.60;99.90
19920;DHT22;10122;50.074;19.920;2022-11-15T10:33:34;8.60;99.90
19920;DHT22;10122;50.074;19.920;2022-11-15T10:41:30;8.60;99.90
19920;DHT22;10122;50.074;19.920;2022-11-15T10:49:24;8.70;99.90
19920;DHT22;10122;50.074;19.920;2022-11-15T10:51:59;8.70;99.90
19920;DHT22;10122;50.074;19.920;2022-11-15T10:54:29;8.80;99.90
19920;DHT22;10122;50.074;19.920;2022-11-15T10:56:59;8.70;99.90
19920;DHT22;10122;50.074;19.920;2022-11-15T10:59:35;8.70;99.90
19920;DHT22;10122;50.074;19.920;2022-11-15T11:02:02;8.70;99.90
19920;DHT22;10122;50.074;19.920;2022-11-15T11:04:27;8.80;99.90
19920;DHT22;10122;50.074;19.920;2022-11-15T11:09:31;8.90;99.90
19920;DHT22;10122;50.074;19.920;2022-11-15T11:11:58;8.90;99.90
19920;DHT22;10122;50.074;19.920;2022-11-15T11:14:35;8.90;99.90
19920;DHT22;10122;50.074;19.920;2022-11-15T11:17:27;8.90;99.90
19920;DHT22;10122;50.074;19.920;2022-11-15T11:22:47;8.90;99.90
19920;DHT22;10122;50.074;19.920;2022-11-15T11:31:13;9.00;99.90
19920;DHT22;10122;50.074;19.920;2022-11-15T11:33:55;9.00;99.90
19920;DHT22;10122;50.074;19.920;2022-11-15T11:42:24;9.00;99.90
19920;DHT22;10122;50.074;19.920;2022-11-15T11:44:58;9.10;99.90
19920;DHT22;10122;50.074;19.920;2022-11-15T11:47:31;9.10;99.90
19920;DHT22;10122;50.074;19.920;2022-11-15T11:50:11;9.20;99.90
19920;DHT22;10122;50.074;19.920;2022-11-15T11:52:44;9.30;99.90
19920;DHT22;10122;50.074;19.920;2022-11-15T11:55:16;9.30;99.90
19920;DHT22;10122;50.074;19.920;2022-11-15T11:58:04;9.40;99.90
19920;DHT22;10122;50.074;19.920;2022-11-15T12:00:34;9.40;99.90
19920;DHT22;10122;50.074;19.920;2022-11-15T12:05:54;9.50;99.90
19920;DHT22;10122;50.074;19.920;2022-11-15T12:11:28;9.60;99.90
19920;DHT22;10122;50.074;19.920;2022-11-15T12:14:00;9.70;99.90
19920;DHT22;10122;50.074;19.920;2022-11-15T12:16:29;9.70;99.90
19920;DHT22;10122;50.074;19.920;2022-11-15T12:19:02;9.70;99.90
19920;DHT22;10122;50.074;19.920;2022-11-15T12:24:34;9.70;99.90
19920;DHT22;10122;50.074;19.920;2022-11-15T12:27:16;9.70;99.90
19920;DHT22;10122;50.074;19.920;2022-11-15T12:29:51;9.70;99.90
19920;DHT22;10122;50.074;19.920;2022-11-15T12:34:50;9.70;99.90
19920;DHT22;10122;50.074;19.920;2022-11-15T12:45:42;9.60;99.90
19920;DHT22;10122;50.074;19.920;2022-11-15T12:59:00;9.50;99.90
19920;DHT22;10122;50.074;19.920;2022-11-15T13:06:48;9.50;99.90
19920;DHT22;10122;50.074;19.920;2022-11-15T13:12:09;9.50;99.90
19920;DHT22;10122;50.074;19.920;2022-11-15T13:14:41;9.90;99.90
19920;DHT22;10122;50.074;19.920;2022-11-15T13:19:47;9.70;99.90
19920;DHT22;10122;50.074;19.920;2022-11-15T13:22:13;9.60;99.90
19920;DHT22;10122;50.074;19.920;2022-11-15T13:24:59;9.50;99.90
19920;DHT22;10122;50.074;19.920;2022-11-15T13:27:26;9.50;99.90
19920;DHT22;10122;50.074;19.920;2022-11-15T13:29:53;9.40;99.90
19920;DHT22;10122;50.074;19.920;2022-11-15T13:32:18;9.50;99.90
19920;DHT22;10122;50.074;19.920;2022-11-15T13:34:49;9.50;99.90
19920;DHT22;10122;50.074;19.920;2022-11-15T13:39:47;9.60;99.90
19920;DHT22;10122;50.074;19.920;2022-11-15T13:42:17;9.60;99.90
19920;DHT22;10122;50.074;19.920;2022-11-15T13:44:57;9.60;99.90
19920;DHT22;10122;50.074;19.920;2022-11-15T13:47:26;9.80;99.90
19920;DHT22;10122;50.074;19.920;2022-11-15T13:49:52;9.90;99.90
19920;DHT22;10122;50.074;19.920;2022-11-15T13:52:19;9.90;99.90
19920;DHT22;10122;50.074;19.920;2022-11-15T13:55:01;9.90;99.90
19920;DHT22;10122;50.074;19.920;2022-11-15T13:57:50;9.90;99.90
19920;DHT22;10122;50.074;19.920;2022-11-15T14:02:51;9.90;99.90
19920;DHT22;10122;50.074;19.920;2022-11-15T14:05:23;9.80;99.90
19920;DHT22;10122;50.074;19.920;2022-11-15T14:10:33;9.70;99.90
19920;DHT22;10122;50.074;19.920;2022-11-15T14:13:00;9.70;99.90
19920;DHT22;10122;50.074;19.920;2022-11-15T14:15:33;9.60;99.90
19920;DHT22;10122;50.074;19.920;2022-11-15T14:18:00;9.60;99.90
19920;DHT22;10122;50.074;19.920;2022-11-15T14:22:57;9.70;99.90
19920;DHT22;10122;50.074;19.920;2022-11-15T14:25:24;9.70;99.90
19920;DHT22;10122;50.074;19.920;2022-11-15T14:28:12;9.70;99.90
19920;DHT22;10122;50.074;19.920;2022-11-15T14:30:40;9.70;99.90
19920;DHT22;10122;50.074;19.920;2022-11-15T14:35:45;9.70;99.90
19920;DHT22;10122;50.074;19.920;2022-11-15T14:38:11;9.70;99.90
19920;DHT22;10122;50.074;19.920;2022-11-15T14:40:37;9.70;99.90
19920;DHT22;10122;50.074;19.920;2022-11-15T14:43:02;9.60;99.90
19920;DHT22;10122;50.074;19.920;2022-11-15T14:45:28;9.60;99.90
19920;DHT22;10122;50.074;19.920;2022-11-15T14:47:54;9.60;99.90
19920;DHT22;10122;50.074;19.920;2022-11-15T14:50:21;9.60;99.90
19920;DHT22;10122;50.074;19.920;2022-11-15T14:52:48;9.60;99.90
19920;DHT22;10122;50.074;19.920;2022-11-15T14:55:23;9.60;99.90
19920;DHT22;10122;50.074;19.920;2022-11-15T14:57:49;9.60;99.90
19920;DHT22;10122;50.074;19.920;2022-11-15T15:00:16;9.70;99.90
19920;DHT22;10122;50.074;19.920;2022-11-15T15:02:43;9.70;99.90
19920;DHT22;10122;50.074;19.920;2022-11-15T15:07:44;9.60;99.90
19920;DHT22;10122;50.074;19.920;2022-11-15T15:10:10;9.60;99.90
19920;DHT22;10122;50.074;19.920;2022-11-15T15:12:36;9.60;99.90
19920;DHT22;10122;50.074;19.920;2022-11-15T15:15:02;9.60;99.90
19920;DHT22;10122;50.074;19.920;2022-11-15T15:17:28;9.60;99.90
19920;DHT22;10122;50.074;19.920;2022-11-15T15:19:54;9.60;99.90
19920;DHT22;10122;50.074;19.920;2022-11-15T15:22:20;9.60;99.90
19920;DHT22;10122;50.074;19.920;2022-11-15T15:24:51;9.60;99.90
19920;DHT22;10122;50.074;19.920;2022-11-15T15:27:16;9.60;99.90
19920;DHT22;10122;50.074;19.920;2022-11-15T15:29:43;9.60;99.90
19920;DHT22;10122;50.074;19.920;2022-11-15T15:32:10;9.60;99.90
19920;DHT22;10122;50.074;19.920;2022-11-15T15:34:36;9.60;99.90
19920;DHT22;10122;50.074;19.920;2022-11-15T15:39:49;9.50;99.90
19920;DHT22;10122;50.074;19.920;2022-11-15T15:42:15;9.50;99.90
19920;DHT22;10122;50.074;19.920;2022-11-15T15:44:40;9.50;99.90
19920;DHT22;10122;50.074;19.920;2022-11-15T15:47:24;9.50;99.90
19920;DHT22;10122;50.074;19.920;2022-11-15T15:49:50;9.50;99.90
19920;DHT22;10122;50.074;19.920;2022-11-15T15:52:17;9.40;99.90
19920;DHT22;10122;50.074;19.920;2022-11-15T15:54:42;9.40;99.90
19920;DHT22;10122;50.074;19.920;2022-11-15T15:57:11;9.40;99.90
19920;DHT22;10122;50.074;19.920;2022-11-15T15:59:37;9.30;99.90
19920;DHT22;10122;50.074;19.920;2022-11-15T16:02:02;9.40;99.90
19920;DHT22;10122;50.074;19.920;2022-11-15T16:04:28;9.30;99.90
19920;DHT22;10122;50.074;19.920;2022-11-15T16:07:03;9.30;99.90
19920;DHT22;10122;50.074;19.920;2022-11-15T16:09:29;9.30;99.90
19920;DHT22;10122;50.074;19.920;2022-11-15T16:12:14;9.40;99.90
19920;DHT22;10122;50.074;19.920;2022-11-15T16:14:42;9.30;99.90
19920;DHT22;10122;50.074;19.920;2022-11-15T16:17:33;9.30;99.90
19920;DHT22;10122;50.074;19.920;2022-11-15T16:20:01;9.30;99.90
19920;DHT22;10122;50.074;19.920;2022-11-15T16:22:26;9.30;99.90
19920;DHT22;10122;50.074;19.920;2022-11-15T16:24:54;9.40;99.90
19920;DHT22;10122;50.074;19.920;2022-11-15T16:27:21;9.40;99.90
19920;DHT22;10122;50.074;19.920;2022-11-15T16:29:47;9.40;99.90
19920;DHT22;10122;50.074;19.920;2022-11-15T16:32:14;9.40;99.90
19920;DHT22;10122;50.074;19.920;2022-11-15T16:34:40;9.40;99.90
19920;DHT22;10122;50.074;19.920;2022-11-15T16:37:32;9.40;99.90
19920;DHT22;10122;50.074;19.920;2022-11-15T16:39:57;9.40;99.90
19920;DHT22;10122;50.074;19.920;2022-11-15T16:42:23;9.30;99.90
19920;DHT22;10122;50.074;19.920;2022-11-15T16:44:48;9.40;99.90
19920;DHT22;10122;50.074;19.920;2022-11-15T16:47:17;9.30;99.90
19920;DHT22;10122;50.074;19.920;2022-11-15T16:49:47;9.40;99.90
19920;DHT22;10122;50.074;19.920;2022-11-15T16:52:13;9.40;99.90
19920;DHT22;10122;50.074;19.920;2022-11-15T16:54:38;9.40;99.90
19920;DHT22;10122;50.074;19.920;2022-11-15T16:57:04;9.40;99.90
19920;DHT22;10122;50.074;19.920;2022-11-15T16:59:29;9.40;99.90
19920;DHT22;10122;50.074;19.920;2022-11-15T17:01:57;9.40;99.90
19920;DHT22;10122;50.074;19.920;2022-11-15T17:04:23;9.30;99.90
19920;DHT22;10122;50.074;19.920;2022-11-15T17:06:49;9.30;99.90
19920;DHT22;10122;50.074;19.920;2022-11-15T17:09:20;9.30;99.90
19920;DHT22;10122;50.074;19.920;2022-11-15T17:11:49;9.30;99.90
19920;DHT22;10122;50.074;19.920;2022-11-15T17:14:15;9.30;99.90
19920;DHT22;10122;50.074;19.920;2022-11-15T17:16:41;9.30;99.90
19920;DHT22;10122;50.074;19.920;2022-11-15T17:19:16;9.30;99.90
19920;DHT22;10122;50.074;19.920;2022-11-15T17:21:43;9.30;99.90
19920;DHT22;10122;50.074;19.920;2022-11-15T17:24:09;9.30;99.90
19920;DHT22;10122;50.074;19.920;2022-11-15T17:26:35;9.30;99.90
19920;DHT22;10122;50.074;19.920;2022-11-15T17:29:00;9.20;99.90
19920;DHT22;10122;50.074;19.920;2022-11-15T17:31:28;9.30;99.90
19920;DHT22;10122;50.074;19.920;2022-11-15T17:33:59;9.30;99.90
19920;DHT22;10122;50.074;19.920;2022-11-15T17:36:25;9.20;99.90
19920;DHT22;10122;50.074;19.920;2022-11-15T17:38:50;9.20;99.90
19920;DHT22;10122;50.074;19.920;2022-11-15T17:41:17;9.30;99.90
19920;DHT22;10122;50.074;19.920;2022-11-15T17:43:43;9.20;99.90
19920;DHT22;10122;50.074;19.920;2022-11-15T17:46:14;9.30;99.90
19920;DHT22;10122;50.074;19.920;2022-11-15T17:48:40;9.20;99.90
19920;DHT22;10122;50.074;19.920;2022-11-15T17:51:10;9.20;99.90
19920;DHT22;10122;50.074;19.920;2022-11-15T17:53:38;9.20;99.90
19920;DHT22;10122;50.074;19.920;2022-11-15T17:56:09;9.20;99.90
19920;DHT22;10122;50.074;19.920;2022-11-15T17:58:35;9.20;99.90
19920;DHT22;10122;50.074;19.920;2022-11-15T18:03:40;9.20;99.90
19920;DHT22;10122;50.074;19.920;2022-11-15T18:06:06;9.30;99.90
19920;DHT22;10122;50.074;19.920;2022-11-15T18:08:35;9.30;99.90
19920;DHT22;10122;50.074;19.920;2022-11-15T18:11:23;9.20;99.90